NVR237 ESSA-EFHK
Flight info
| Callsign | NVR237 |
|---|---|
| Flight time | 0h 39m |
| Altitude | 31000 |
| Route | TOVRI N851 RIKUM DCT RIRIP Y364 LAKUT |
| Aircraft | L101/H-SDFGHIRWXY/S |
Departure
| Time | 2026-05-05 18:26 |
|---|---|
| Airport | Stockholm-Arlanda Airport (ESSA) |
Arrival
| Time | 2026-05-05 19:06 |
|---|---|
| Airport | Helsinki Vantaa Airport (EFHK) |
| Time | Latitude | Longitude | Altitude | Speed | Heading |
|---|---|---|---|---|---|
| 2026-05-05 17:45 | 59.65288 | 17.92949 | 113 ft | 0 kts | 71° |
| 2026-05-05 18:13 | 59.65288 | 17.92946 | 117 ft | 2 kts | 71° |
| 2026-05-05 18:13 | 59.65279 | 17.92897 | 114 ft | 3 kts | 70° |
| 2026-05-05 18:13 | 59.65270 | 17.92847 | 112 ft | 4 kts | 69° |
| 2026-05-05 18:13 | 59.65260 | 17.92798 | 112 ft | 4 kts | 69° |
| 2026-05-05 18:14 | 59.65255 | 17.92772 | 112 ft | 0 kts | 70° |
| 2026-05-05 18:19 | 59.65258 | 17.92776 | 112 ft | 1 kts | 53° |
| 2026-05-05 18:19 | 59.65266 | 17.92779 | 112 ft | 2 kts | 8° |
| 2026-05-05 18:19 | 59.65299 | 17.92766 | 114 ft | 8 kts | 340° |
| 2026-05-05 18:20 | 59.65361 | 17.92702 | 115 ft | 12 kts | 326° |
| 2026-05-05 18:20 | 59.65360 | 17.92542 | 115 ft | 16 kts | 224° |
| 2026-05-05 18:20 | 59.65254 | 17.92417 | 115 ft | 20 kts | 200° |
| 2026-05-05 18:20 | 59.65111 | 17.92351 | 112 ft | 23 kts | 190° |
| 2026-05-05 18:21 | 59.64948 | 17.92292 | 113 ft | 25 kts | 190° |
| 2026-05-05 18:21 | 59.64765 | 17.92225 | 113 ft | 28 kts | 190° |
| 2026-05-05 18:21 | 59.64607 | 17.92167 | 113 ft | 22 kts | 187° |
| 2026-05-05 18:21 | 59.64462 | 17.92114 | 115 ft | 17 kts | 190° |
| 2026-05-05 18:22 | 59.64359 | 17.92068 | 116 ft | 9 kts | 219° |
| 2026-05-05 18:22 | 59.64325 | 17.91930 | 114 ft | 13 kts | 231° |
| 2026-05-05 18:22 | 59.64230 | 17.91863 | 116 ft | 17 kts | 188° |
| 2026-05-05 18:22 | 59.64104 | 17.91821 | 116 ft | 21 kts | 190° |
| 2026-05-05 18:23 | 59.63960 | 17.91765 | 112 ft | 20 kts | 188° |
| 2026-05-05 18:23 | 59.63821 | 17.91675 | 110 ft | 19 kts | 222° |
| 2026-05-05 18:23 | 59.63783 | 17.91610 | 108 ft | 2 kts | 220° |
| 2026-05-05 18:23 | 59.63755 | 17.91561 | 110 ft | 8 kts | 221° |
| 2026-05-05 18:24 | 59.63734 | 17.91443 | 113 ft | 10 kts | 266° |
| 2026-05-05 18:24 | 59.63770 | 17.91342 | 112 ft | 10 kts | 353° |
| 2026-05-05 18:24 | 59.63792 | 17.91347 | 113 ft | 0 kts | 9° |
| 2026-05-05 18:26 | 59.63856 | 17.91369 | 112 ft | 42 kts | 10° |
| 2026-05-05 18:26 | 59.64472 | 17.91590 | 112 ft | 135 kts | 11° |
| 2026-05-05 18:26 | 59.65579 | 17.91973 | 673 ft | 173 kts | 10° |
| 2026-05-05 18:26 | 59.66792 | 17.92366 | 1928 ft | 179 kts | 7° |
| 2026-05-05 18:27 | 59.68040 | 17.92721 | 3213 ft | 182 kts | 5° |
| 2026-05-05 18:27 | 59.69341 | 17.93032 | 4262 ft | 196 kts | 2° |
| 2026-05-05 18:27 | 59.70719 | 17.93602 | 5231 ft | 214 kts | 11° |
| 2026-05-05 18:27 | 59.72294 | 17.94464 | 5433 ft | 255 kts | 11° |
| 2026-05-05 18:28 | 59.75766 | 17.96570 | 5011 ft | 268 kts | 32° |
| 2026-05-05 18:28 | 59.77055 | 17.99241 | 5073 ft | 273 kts | 56° |
| 2026-05-05 18:28 | 59.77779 | 18.02770 | 5241 ft | 290 kts | 75° |
| 2026-05-05 18:29 | 59.77953 | 18.06987 | 5713 ft | 329 kts | 95° |
| 2026-05-05 18:29 | 59.77349 | 18.11470 | 6688 ft | 344 kts | 115° |
| 2026-05-05 18:29 | 59.76070 | 18.15394 | 8134 ft | 331 kts | 129° |
| 2026-05-05 18:29 | 59.74898 | 18.19129 | 10010 ft | 308 kts | 112° |
| 2026-05-05 18:30 | 59.74458 | 18.23122 | 11753 ft | 288 kts | 91° |
| 2026-05-05 18:30 | 59.74643 | 18.27006 | 13072 ft | 283 kts | 77° |
| 2026-05-05 18:30 | 59.75184 | 18.30818 | 13871 ft | 295 kts | 69° |
| 2026-05-05 18:30 | 59.75938 | 18.34735 | 14431 ft | 313 kts | 65° |
| 2026-05-05 18:31 | 59.76820 | 18.38843 | 14873 ft | 336 kts | 64° |
| 2026-05-05 18:31 | 59.77794 | 18.43255 | 15153 ft | 362 kts | 64° |
| 2026-05-05 18:31 | 59.78834 | 18.48004 | 15384 ft | 388 kts | 65° |
| 2026-05-05 18:31 | 59.79927 | 18.53115 | 15509 ft | 416 kts | 65° |
| 2026-05-05 18:32 | 59.81067 | 18.58582 | 15630 ft | 440 kts | 66° |
| 2026-05-05 18:32 | 59.82244 | 18.64370 | 15818 ft | 461 kts | 67° |
| 2026-05-05 18:32 | 59.83442 | 18.70374 | 16321 ft | 471 kts | 67° |
| 2026-05-05 18:32 | 59.84640 | 18.76451 | 17069 ft | 474 kts | 67° |
| 2026-05-05 18:33 | 59.85849 | 18.82602 | 17641 ft | 483 kts | 67° |
| 2026-05-05 18:33 | 59.87094 | 18.88925 | 17872 ft | 498 kts | 67° |
| 2026-05-05 18:33 | 59.88372 | 18.95408 | 18358 ft | 506 kts | 67° |
| 2026-05-05 18:33 | 59.89655 | 19.01928 | 19021 ft | 507 kts | 67° |
| 2026-05-05 18:34 | 59.90944 | 19.08496 | 19631 ft | 511 kts | 67° |
| 2026-05-05 18:34 | 59.92239 | 19.15123 | 20255 ft | 514 kts | 67° |
| 2026-05-05 18:34 | 59.93538 | 19.21795 | 20945 ft | 518 kts | 67° |
| 2026-05-05 18:34 | 59.94844 | 19.28529 | 21445 ft | 525 kts | 68° |
| 2026-05-05 18:35 | 59.96163 | 19.35348 | 22042 ft | 529 kts | 68° |
| 2026-05-05 18:35 | 59.97476 | 19.42231 | 22615 ft | 533 kts | 69° |
| 2026-05-05 18:35 | 59.98629 | 19.49287 | 23185 ft | 537 kts | 73° |
| 2026-05-05 18:35 | 59.99578 | 19.56533 | 23716 ft | 541 kts | 77° |
| 2026-05-05 18:36 | 60.00393 | 19.63902 | 24223 ft | 544 kts | 79° |
| 2026-05-05 18:36 | 60.01146 | 19.71322 | 24739 ft | 546 kts | 79° |
| 2026-05-05 18:36 | 60.01899 | 19.78772 | 25241 ft | 549 kts | 79° |
| 2026-05-05 18:36 | 60.02694 | 19.86269 | 25739 ft | 552 kts | 78° |
| 2026-05-05 18:37 | 60.03538 | 19.93780 | 26237 ft | 556 kts | 77° |
| 2026-05-05 18:37 | 60.04424 | 20.01325 | 26718 ft | 559 kts | 77° |
| 2026-05-05 18:37 | 60.05338 | 20.08914 | 27212 ft | 562 kts | 77° |
| 2026-05-05 18:37 | 60.06251 | 20.16540 | 27716 ft | 565 kts | 77° |
| 2026-05-05 18:38 | 60.07153 | 20.24214 | 28215 ft | 568 kts | 77° |
| 2026-05-05 18:38 | 60.08048 | 20.31914 | 28556 ft | 560 kts | 77° |
| 2026-05-05 18:38 | 60.08908 | 20.39308 | 28723 ft | 539 kts | 78° |
| 2026-05-05 18:38 | 60.09764 | 20.46700 | 28869 ft | 552 kts | 78° |
| 2026-05-05 18:39 | 60.10638 | 20.54315 | 28868 ft | 568 kts | 78° |
| 2026-05-05 18:39 | 60.11525 | 20.62060 | 28848 ft | 570 kts | 78° |
| 2026-05-05 18:39 | 60.13301 | 20.77602 | 28857 ft | 572 kts | 78° |
| 2026-05-05 18:40 | 60.15055 | 20.93149 | 28852 ft | 572 kts | 78° |
| 2026-05-05 18:40 | 60.16789 | 21.08726 | 28856 ft | 572 kts | 78° |
| 2026-05-05 18:41 | 60.18509 | 21.24335 | 28844 ft | 571 kts | 79° |
| 2026-05-05 18:41 | 60.20204 | 21.39922 | 28892 ft | 571 kts | 79° |
| 2026-05-05 18:42 | 60.21805 | 21.55589 | 28859 ft | 572 kts | 81° |
| 2026-05-05 18:42 | 60.23269 | 21.71338 | 28858 ft | 573 kts | 81° |
| 2026-05-05 18:43 | 60.24867 | 21.87032 | 28855 ft | 573 kts | 79° |
| 2026-05-05 18:43 | 60.26496 | 22.02722 | 28834 ft | 572 kts | 80° |
| 2026-05-05 18:44 | 60.27300 | 22.10580 | 28638 ft | 574 kts | 80° |
| 2026-05-05 18:44 | 60.28090 | 22.18339 | 27882 ft | 553 kts | 80° |
| 2026-05-05 18:44 | 60.28849 | 22.25784 | 27190 ft | 533 kts | 80° |
| 2026-05-05 18:44 | 60.29584 | 22.33060 | 26531 ft | 528 kts | 80° |
| 2026-05-05 18:45 | 60.30307 | 22.40298 | 25889 ft | 523 kts | 80° |
| 2026-05-05 18:45 | 60.31016 | 22.47450 | 25257 ft | 519 kts | 80° |
| 2026-05-05 18:45 | 60.31719 | 22.54567 | 24734 ft | 515 kts | 80° |
| 2026-05-05 18:45 | 60.32417 | 22.61650 | 24146 ft | 514 kts | 80° |
| 2026-05-05 18:46 | 60.33099 | 22.68707 | 23565 ft | 511 kts | 81° |
| 2026-05-05 18:46 | 60.33743 | 22.75735 | 22862 ft | 507 kts | 82° |
| 2026-05-05 18:46 | 60.34354 | 22.82692 | 22199 ft | 501 kts | 82° |
| 2026-05-05 18:46 | 60.34965 | 22.89577 | 21567 ft | 496 kts | 81° |
| 2026-05-05 18:47 | 60.35592 | 22.96397 | 20943 ft | 492 kts | 81° |
| 2026-05-05 18:47 | 60.36229 | 23.03156 | 20348 ft | 488 kts | 81° |
| 2026-05-05 18:47 | 60.36861 | 23.09872 | 19765 ft | 485 kts | 81° |
| 2026-05-05 18:47 | 60.37484 | 23.16529 | 19195 ft | 481 kts | 81° |
| 2026-05-05 18:48 | 60.38099 | 23.23160 | 18633 ft | 478 kts | 81° |
| 2026-05-05 18:48 | 60.38706 | 23.29734 | 18092 ft | 475 kts | 81° |
| 2026-05-05 18:48 | 60.39307 | 23.36275 | 17473 ft | 470 kts | 81° |
| 2026-05-05 18:48 | 60.39900 | 23.42737 | 16869 ft | 463 kts | 81° |
| 2026-05-05 18:49 | 60.40478 | 23.49074 | 16291 ft | 454 kts | 81° |
| 2026-05-05 18:49 | 60.41041 | 23.55285 | 15694 ft | 445 kts | 81° |
| 2026-05-05 18:49 | 60.41594 | 23.61404 | 15153 ft | 439 kts | 81° |
| 2026-05-05 18:49 | 60.42147 | 23.67427 | 14680 ft | 431 kts | 81° |
| 2026-05-05 18:50 | 60.42689 | 23.73340 | 14165 ft | 423 kts | 81° |
| 2026-05-05 18:50 | 60.43210 | 23.79132 | 13689 ft | 415 kts | 81° |
| 2026-05-05 18:50 | 60.43705 | 23.84769 | 13160 ft | 408 kts | 81° |
| 2026-05-05 18:50 | 60.44181 | 23.90443 | 12608 ft | 400 kts | 82° |
| 2026-05-05 18:51 | 60.44531 | 23.95907 | 12114 ft | 393 kts | 84° |
| 2026-05-05 18:51 | 60.44774 | 24.01435 | 11614 ft | 385 kts | 86° |
| 2026-05-05 18:51 | 60.44911 | 24.04995 | 11300 ft | 381 kts | 85° |
| 2026-05-05 18:51 | 60.45216 | 24.12066 | 10672 ft | 372 kts | 84° |
| 2026-05-05 18:52 | 60.45394 | 24.15503 | 10363 ft | 368 kts | 83° |
| 2026-05-05 18:52 | 60.45789 | 24.22305 | 9765 ft | 359 kts | 82° |
| 2026-05-05 18:52 | 60.45985 | 24.25590 | 9469 ft | 347 kts | 82° |
| 2026-05-05 18:52 | 60.46229 | 24.30301 | 9019 ft | 326 kts | 83° |
| 2026-05-05 18:53 | 60.46407 | 24.34755 | 8604 ft | 309 kts | 85° |
| 2026-05-05 18:53 | 60.46554 | 24.38995 | 8214 ft | 295 kts | 85° |
| 2026-05-05 18:53 | 60.46744 | 24.44464 | 7740 ft | 293 kts | 85° |
| 2026-05-05 18:53 | 60.46845 | 24.47237 | 7478 ft | 292 kts | 84° |
| 2026-05-05 18:54 | 60.47000 | 24.51333 | 7125 ft | 290 kts | 84° |
| 2026-05-05 18:54 | 60.47156 | 24.55402 | 6770 ft | 288 kts | 84° |
| 2026-05-05 18:54 | 60.47311 | 24.59435 | 6423 ft | 287 kts | 84° |
| 2026-05-05 18:54 | 60.47375 | 24.63458 | 6064 ft | 286 kts | 92° |
| 2026-05-05 18:55 | 60.47128 | 24.67439 | 5701 ft | 284 kts | 100° |
| 2026-05-05 18:55 | 60.46712 | 24.71345 | 5345 ft | 283 kts | 103° |
| 2026-05-05 18:55 | 60.46257 | 24.75219 | 5000 ft | 282 kts | 102° |
| 2026-05-05 18:55 | 60.45831 | 24.79082 | 4644 ft | 281 kts | 101° |
| 2026-05-05 18:56 | 60.45453 | 24.82902 | 4288 ft | 279 kts | 99° |
| 2026-05-05 18:56 | 60.45098 | 24.86808 | 3936 ft | 278 kts | 99° |
| 2026-05-05 18:56 | 60.44773 | 24.90659 | 3584 ft | 276 kts | 94° |
| 2026-05-05 18:56 | 60.44917 | 24.94473 | 3182 ft | 271 kts | 71° |
| 2026-05-05 18:57 | 60.45731 | 24.97832 | 2957 ft | 264 kts | 51° |
| 2026-05-05 18:57 | 60.46891 | 25.00624 | 2894 ft | 261 kts | 42° |
| 2026-05-05 18:57 | 60.48198 | 25.03186 | 2981 ft | 262 kts | 39° |
| 2026-05-05 18:57 | 60.49534 | 25.05731 | 3008 ft | 264 kts | 40° |
| 2026-05-05 18:58 | 60.50840 | 25.08350 | 2992 ft | 264 kts | 42° |
| 2026-05-05 18:58 | 60.52107 | 25.11049 | 2973 ft | 265 kts | 43° |
| 2026-05-05 18:58 | 60.53354 | 25.13809 | 2983 ft | 266 kts | 44° |
| 2026-05-05 18:58 | 60.54594 | 25.16588 | 2972 ft | 260 kts | 44° |
| 2026-05-05 18:59 | 60.55726 | 25.19117 | 3001 ft | 224 kts | 43° |
| 2026-05-05 18:59 | 60.56446 | 25.21699 | 2894 ft | 208 kts | 75° |
| 2026-05-05 18:59 | 60.56290 | 25.24536 | 2890 ft | 205 kts | 114° |
| 2026-05-05 18:59 | 60.55350 | 25.26626 | 2953 ft | 201 kts | 153° |
| 2026-05-05 19:00 | 60.54031 | 25.27281 | 2995 ft | 194 kts | 181° |
| 2026-05-05 19:00 | 60.52701 | 25.27130 | 3006 ft | 189 kts | 194° |
| 2026-05-05 19:00 | 60.51421 | 25.26578 | 2988 ft | 187 kts | 199° |
| 2026-05-05 19:00 | 60.50169 | 25.25929 | 2985 ft | 185 kts | 200° |
| 2026-05-05 19:01 | 60.48922 | 25.25266 | 2978 ft | 185 kts | 200° |
| 2026-05-05 19:01 | 60.47677 | 25.24599 | 2989 ft | 186 kts | 201° |
| 2026-05-05 19:01 | 60.46424 | 25.23929 | 2993 ft | 186 kts | 200° |
| 2026-05-05 19:01 | 60.45171 | 25.23262 | 2993 ft | 186 kts | 200° |
| 2026-05-05 19:02 | 60.44055 | 25.22121 | 3037 ft | 178 kts | 225° |
| 2026-05-05 19:02 | 60.43205 | 25.20314 | 3060 ft | 177 kts | 233° |
| 2026-05-05 19:02 | 60.42396 | 25.18442 | 2900 ft | 176 kts | 234° |
| 2026-05-05 19:02 | 60.41596 | 25.16668 | 2735 ft | 164 kts | 233° |
| 2026-05-05 19:03 | 60.40852 | 25.15031 | 2477 ft | 155 kts | 234° |
| 2026-05-05 19:03 | 60.40133 | 25.13433 | 2285 ft | 153 kts | 234° |
| 2026-05-05 19:03 | 60.39419 | 25.11850 | 2077 ft | 151 kts | 234° |
| 2026-05-05 19:03 | 60.38722 | 25.10311 | 1866 ft | 144 kts | 234° |
| 2026-05-05 19:04 | 60.38055 | 25.08836 | 1693 ft | 142 kts | 234° |
| 2026-05-05 19:04 | 60.37389 | 25.07369 | 1495 ft | 142 kts | 234° |
| 2026-05-05 19:04 | 60.36722 | 25.05908 | 1305 ft | 141 kts | 234° |
| 2026-05-05 19:04 | 60.36056 | 25.04447 | 1085 ft | 141 kts | 233° |
| 2026-05-05 19:05 | 60.35390 | 25.02992 | 900 ft | 141 kts | 232° |
| 2026-05-05 19:05 | 60.34692 | 25.01486 | 733 ft | 152 kts | 231° |
| 2026-05-05 19:05 | 60.33983 | 24.99929 | 584 ft | 147 kts | 230° |
| 2026-05-05 19:05 | 60.33314 | 24.98443 | 317 ft | 140 kts | 229° |
| 2026-05-05 19:06 | 60.32680 | 24.97057 | 176 ft | 121 kts | 228° |
| 2026-05-05 19:06 | 60.32213 | 24.95991 | 182 ft | 84 kts | 229° |
| 2026-05-05 19:06 | 60.31875 | 24.95334 | 179 ft | 34 kts | 206° |
| 2026-05-05 19:06 | 60.31696 | 24.95206 | 177 ft | 24 kts | 189° |
| 2026-05-05 19:07 | 60.31641 | 24.95226 | 175 ft | 0 kts | 144° |
| 2026-05-05 19:07 | 60.31635 | 24.95229 | 175 ft | 2 kts | 164° |
| 2026-05-05 19:07 | 60.31603 | 24.95218 | 175 ft | 7 kts | 202° |
| 2026-05-05 19:08 | 60.31556 | 24.95140 | 175 ft | 11 kts | 222° |
| 2026-05-05 19:08 | 60.31498 | 24.95015 | 174 ft | 14 kts | 226° |
| 2026-05-05 19:08 | 60.31417 | 24.95040 | 172 ft | 16 kts | 134° |
| 2026-05-05 19:08 | 60.31329 | 24.95215 | 171 ft | 20 kts | 137° |
| 2026-05-05 19:09 | 60.31240 | 24.95378 | 171 ft | 16 kts | 138° |
| 2026-05-05 19:09 | 60.31163 | 24.95562 | 171 ft | 16 kts | 91° |
| 2026-05-05 19:09 | 60.31207 | 24.95702 | 172 ft | 9 kts | 44° |
| 2026-05-05 19:09 | 60.31261 | 24.95815 | 172 ft | 11 kts | 47° |
| 2026-05-05 19:10 | 60.31309 | 24.95795 | 172 ft | 9 kts | 319° |
| 2026-05-05 19:10 | 60.31333 | 24.95750 | 172 ft | 0 kts | 316° |
| 2026-05-05 19:10 | 60.31339 | 24.95738 | 172 ft | 0 kts | 316° |